• Join FlightAware (Why Join?)
  • Login
  • US Flag 
12:25AM EDT


 

Airport Tracker/Info


-or-


 

Live Flight TrackerFlight Track Log ✈ UAL1254 ✈ 06-Aug-2013 ✈ KICT - KDEN

Flight Track Log - Related Links

Times and Time Zones

All times are in EDT time to prevent confusion due to time zone crossing. See the UAL1254 flight status page for this flight to view local times or setup timezone preferences in your user account.

Time Position Orientation Groundspeed Altitude Reporting Facility
EDT Latitude Longitude Course Direction KTS MPH feet Rate Location/Type
02:37PM 37.6480 -97.4400 218° Southwest 155 178  Level FlightAware
02:37PM 37.6340 -97.4470 202° Southwest 171 197 1,900 4,680 Climbing FlightAware
02:37PM 37.6280 -97.4510 208° Southwest 177 204 2,200 2,100 Climbing FlightAware
02:38PM 37.6210 -97.4610 229° Southwest 184 212 2,600 1,680 Climbing FlightAware
02:38PM 37.6120 -97.4770 235° Southwest 212 244 3,000 2,100 Climbing FlightAware
02:38PM 37.6040 -97.4920 236° Southwest 223 257 3,700 3,420 Climbing FlightAware
02:38PM 37.5940 -97.5120 238° Southwest 221 254 4,900 2,460 Climbing FlightAware
02:39PM 37.5780 -97.5400 234° Southwest 261 300 5,500 2,400 Climbing FlightAware
02:39PM 37.5660 -97.5690 242° Southwest 266 306 6,700 3,600 Climbing FlightAware
02:39PM 37.5660 -97.5750 270° West 266 306 7,000 3,840 Climbing FlightAware
02:39PM 37.5710 -97.6050 282° West 265 305 8,300 2,460 Climbing FlightAware
02:40PM 37.5730 -97.6200 280° West 268 308 8,800 2,400 Climbing FlightAware
02:41PM 37.5870 -97.7340 279° West 324 373 11,400 3,000 Climbing FlightAware
02:41PM 37.5950 -97.7950 279° West 328 377 13,100 3,060 Climbing FlightAware
02:42PM 37.6030 -97.8640 278° West 340 391 14,900 2,820 Climbing FlightAware
02:42PM 37.6050 -97.8760 282° West 343 395 15,100 2,700 Climbing FlightAware
02:43PM 37.6200 -97.9960 279° West 353 406 18,000 2,640 Climbing FlightAware
02:44PM 37.6300 -98.0790 279° West 364 419 19,700 2,400 Climbing FlightAware
02:44PM 37.6380 -98.1510 278° West 373 429 21,000 2,400 Climbing FlightAware
02:45PM 37.6470 -98.2210 279° West 378 435 22,300 2,400 Climbing FlightAware
02:45PM 37.6570 -98.3090 278° West 382 440 23,900 2,040 Climbing FlightAware
02:46PM 37.6690 -98.4110 278° West 399 459 25,200 1,620 Climbing FlightAware
02:47PM 37.6790 -98.4920 279° West 409 471 26,100 1,620 Climbing FlightAware
02:47PM 37.6880 -98.5750 278° West 418 481 27,100 1,740 Climbing FlightAware
02:48PM 37.6990 -98.6630 279° West 423 487 28,200 2,160 Climbing FlightAware
02:49PM 37.7080 -98.7420 278° West 414 476 29,600 2,700 Climbing FlightAware
02:49PM 37.7170 -98.8220 278° West 400 460 31,200 2,460 Climbing FlightAware
02:50PM 37.7260 -98.8980 279° West 394 453 32,400 1,860 Climbing FlightAware
02:50PM 37.7360 -98.9860 278° West 394 453 33,500 1,260 Climbing FlightAware
02:51PM 37.7440 -99.0600 278° West 396 456 34,000 420 Climbing FlightAware
02:51PM 37.7530 -99.1400 278° West 396 456 34,000  Level FlightAware
02:52PM 37.7650 -99.2520 278° West 395 455 34,000  Level FlightAware
02:53PM 37.7710 -99.3230 276° West 395 455 34,000  Level FlightAware
02:54PM 37.7780 -99.3950 277° West 395 455 34,000  Level FlightAware
02:54PM 37.7850 -99.4650 277° West 395 455 34,000  Level FlightAware
02:55PM 37.7920 -99.5310 278° West 395 455 34,000  Level FlightAware
02:55PM 37.7980 -99.5980 276° West 395 455 34,000  Level FlightAware
02:56PM 37.8050 -99.6720 277° West 395 455 34,000  Level FlightAware
02:57PM 37.8120 -99.7420 277° West 395 455 34,000  Level FlightAware
02:57PM 37.8210 -99.8320 277° West 395 455 34,000  Level FlightAware
02:58PM 37.8280 -99.9060 277° West 395 455 34,000  Level FlightAware
02:59PM 37.8350 -99.9760 277° West 395 455 34,000  Level FlightAware
02:59PM 37.8420 -100.0470 277° West 395 455 34,000  Level FlightAware
03:00PM 37.8460 -100.0940 276° West 395 455 34,000  Level FlightAware
03:01PM 37.8878 -100.4108 276° West 396 456 34,000  Level Kansas City Center
03:02PM 37.9042 -100.5647 278° West 396 456 34,000  Level Kansas City Center
03:03PM 37.9183 -100.6961 278° West 397 457 34,000 -180 Level Kansas City Center
03:04PM 37.9131 -100.8514 268° West 401 461 33,700 -540 Descending Kansas City Center
03:05PM 37.9044 -100.9894 266° West 410 472 32,900 -840 Descending Kansas City Center
03:06PM 37.8944 -101.1564 266° West 427 491 32,000 -480 Descending Kansas City Center
03:07PM 37.8853 -101.2983 265° West 427 491 32,000  Level Kansas City Center
03:08PM 37.8747 -101.4653 265° West 428 493 32,000  Level Kansas City Center
03:14PM 37.9325 -102.2700 265° West 442 509 32,000  Level FlightAware ADS-B
03:14PM 37.9749 -102.3270 313° West 442 509 32,000  Level FlightAware ADS-B
03:15PM 38.0180 -102.3850 313° West 442 509 32,000  Level FlightAware ADS-B
03:15PM 38.0595 -102.4420 313° West 440 506 32,000  Level FlightAware ADS-B
03:16PM 38.1012 -102.4990 313° West 440 506 32,000  Level FlightAware ADS-B
03:16PM 38.1436 -102.5570 313° West 439 505 32,000  Level FlightAware ADS-B
03:17PM 38.1863 -102.6160 313° West 439 505 32,000  Level FlightAware ADS-B
03:17PM 38.2278 -102.6730 313° West 439 505 32,000  Level FlightAware ADS-B
03:18PM 38.2701 -102.7310 313° West 439 505 32,000  Level FlightAware ADS-B
03:18PM 38.3121 -102.7890 313° West 441 507 32,000  Level FlightAware ADS-B
03:19PM 38.3538 -102.8460 313° West 445 512 32,000  Level FlightAware ADS-B
03:19PM 38.3960 -102.9050 312° West 449 517 32,000  Level FlightAware ADS-B
03:20PM 38.4386 -102.9640 313° West 451 519 32,000  Level FlightAware ADS-B
03:20PM 38.4817 -103.0240 313° West 450 518 32,000  Level FlightAware ADS-B
03:21PM 38.5246 -103.0830 313° West 450 518 32,000  Level FlightAware ADS-B
03:21PM 38.5679 -103.1430 313° West 450 518 32,000  Level FlightAware ADS-B
03:22PM 38.6107 -103.2030 312° West 449 517 32,000  Level FlightAware ADS-B
03:22PM 38.6526 -103.2620 312° West 448 516 32,000  Level FlightAware ADS-B
03:23PM 38.6945 -103.3210 312° West 447 514 32,000  Level FlightAware ADS-B
03:23PM 38.7362 -103.3790 313° West 446 513 32,000 -240 Level FlightAware ADS-B
03:24PM 38.7794 -103.4400 312° West 443 510 31,800 -1,380 Descending FlightAware ADS-B
03:24PM 38.8212 -103.4990 312° West 435 501 30,600 -2,460 Descending FlightAware ADS-B
03:25PM 38.8623 -103.5570 312° West 430 495 29,300 -2,520 Descending FlightAware ADS-B
03:25PM 38.9036 -103.6150 312° West 423 487 28,000 -2,520 Descending FlightAware ADS-B
03:26PM 38.9432 -103.6710 312° West 418 481 26,700 -2,460 Descending FlightAware ADS-B
03:26PM 38.9823 -103.7270 312° West 414 476 25,500 -2,400 Descending FlightAware ADS-B
03:27PM 39.0203 -103.7810 312° West 407 468 24,300 -2,400 Descending FlightAware ADS-B
03:27PM 39.0578 -103.8340 312° West 399 459 23,100 -2,340 Descending FlightAware ADS-B
03:28PM 39.0945 -103.8870 312° West 392 451 22,000 -2,340 Descending FlightAware ADS-B
03:28PM 39.1307 -103.9380 312° West 386 444 20,800 -2,280 Descending FlightAware ADS-B
03:29PM 39.1667 -103.9900 312° West 379 436 19,700 -2,220 Descending FlightAware ADS-B
03:29PM 39.2020 -104.0400 312° West 372 428 18,600 -1,800 Descending FlightAware ADS-B
03:30PM 39.2363 -104.0900 312° West 353 406 17,900 -1,200 Descending FlightAware ADS-B
03:30PM 39.2484 -104.1070 313° West 341 392 17,800 -360 Descending FlightAware ADS-B
03:30PM 39.2533 -104.1160 305° West 335 386 17,800 -480 Level FlightAware ADS-B
03:30PM 39.2599 -104.1300 301° West 328 377 17,700 -1,200 Descending FlightAware ADS-B
03:30PM 39.2645 -104.1430 295° West 326 375 17,500 -1,800 Descending FlightAware ADS-B
03:31PM 39.2777 -104.1980 287° West 322 371 16,600 -1,860 Descending FlightAware ADS-B
03:31PM 39.2879 -104.2440 286° West 319 367 15,800 -1,440 Descending FlightAware ADS-B
03:32PM 39.2997 -104.2980 286° West 303 349 15,300 -1,020 Descending FlightAware ADS-B
03:32PM 39.3114 -104.3500 286° West 279 321 14,800 -1,020 Descending FlightAware ADS-B
03:33PM 39.3219 -104.3960 286° West 264 304 14,300 -900 Descending FlightAware ADS-B
03:33PM 39.3326 -104.4430 286° West 259 298 13,900 -780 Descending FlightAware ADS-B
03:34PM 39.3428 -104.4880 286° West 258 297 13,500 -780 Descending FlightAware ADS-B
03:34PM 39.3512 -104.5260 286° West 242 278 13,200 -720 Descending FlightAware ADS-B
03:35PM 39.3586 -104.5600 286° West 232 267 12,900 -1,080 Descending FlightAware ADS-B
03:35PM 39.3653 -104.5900 286° West 225 259 12,400 -1,500 Descending FlightAware ADS-B
03:35PM 39.3730 -104.6230 287° West 234 269 11,700 -1,620 Descending FlightAware ADS-B
03:36PM 39.3803 -104.6540 287° West 237 273 11,100 -1,200 Descending FlightAware ADS-B
03:36PM 39.3858 -104.6780 287° West 236 272 10,900 -600 Descending FlightAware ADS-B
03:36PM 39.3875 -104.6820 299° West 235 270 10,900  Level FlightAware ADS-B
03:36PM 39.3907 -104.6870 310° West 235 270 10,900  Level FlightAware ADS-B
03:36PM 39.3945 -104.6910 321° Northwest 233 268 10,900  Level FlightAware ADS-B
03:36PM 39.3990 -104.6940 333° Northwest 231 266 10,900  Level FlightAware ADS-B
03:37PM 39.4036 -104.6960 341° North 229 264 10,900  Level FlightAware ADS-B
03:37PM 39.4100 -104.6960 360° North 225 259 10,900 -420 Level FlightAware ADS-B
03:37PM 39.4334 -104.6920 North 221 254 10,700 -720 Descending FlightAware ADS-B
03:37PM 39.4459 -104.6910 North 222 255 10,500 -1,020 Descending FlightAware ADS-B
03:37PM 39.4585 -104.6910 360° North 221 254 10,300 -960 Descending FlightAware ADS-B
03:38PM 39.4802 -104.6920 358° North 226 260 10,000 -900 Descending FlightAware ADS-B
03:38PM 39.4939 -104.6920 360° North 219 252 9,800 -300 Descending FlightAware ADS-B
03:38PM 39.5039 -104.6920 360° North 210 242 9,900 300 Climbing FlightAware ADS-B
03:38PM 39.5126 -104.6920 360° North 208 239 9,900  Level FlightAware ADS-B
03:39PM 39.5272 -104.6910 North 200 230 9,900  Level FlightAware ADS-B
03:39PM 39.5342 -104.6910 360° North 199 229 9,900  Level FlightAware ADS-B
03:39PM 39.5432 -104.6910 360° North 197 227 9,900  Level FlightAware ADS-B
03:39PM 39.5570 -104.6910 360° North 200 230 9,900  Level FlightAware ADS-B
03:39PM 39.5707 -104.6910 360° North 196 226 9,900  Level FlightAware ADS-B
03:40PM 39.5800 -104.6910 360° North 197 227 9,900  Level FlightAware ADS-B
03:40PM 39.5834 -104.6910 360° North 197 227 9,900  Level FlightAware ADS-B
03:40PM 39.5974 -104.6900 North 197 227 9,900 -240 Level FlightAware ADS-B
03:40PM 39.6123 -104.6900 360° North 196 226 9,800 -780 Descending FlightAware ADS-B
03:40PM 39.6264 -104.6900 360° North 204 235 9,500 -1,080 Descending FlightAware ADS-B
03:41PM 39.6334 -104.6900 360° North 204 235 9,400 -960 Descending FlightAware ADS-B
03:41PM 39.6495 -104.6900 360° North 201 231 9,100 -960 Descending FlightAware ADS-B
03:41PM 39.6567 -104.6900 360° North 194 223 9,000 -960 Descending FlightAware ADS-B
03:41PM 39.6720 -104.6900 360° North 193 222 8,700 -960 Descending FlightAware ADS-B
03:42PM 39.6898 -104.6890 North 181 208 8,400 -900 Descending FlightAware ADS-B
03:42PM 39.7001 -104.6890 360° North 174 200 8,200 -900 Descending FlightAware ADS-B
03:42PM 39.7056 -104.6890 360° North 176 203 8,100 -840 Descending FlightAware ADS-B
03:42PM 39.7183 -104.6890 360° North 173 199 7,900 -1,020 Descending FlightAware ADS-B
03:42PM 39.7302 -104.6890 360° North 170 196 7,600 -960 Descending FlightAware ADS-B
03:43PM 39.7381 -104.6890 360° North 164 189 7,500 -840 Descending FlightAware ADS-B
03:43PM 39.7471 -104.6890 360° North 155 178 7,300 -780 Descending FlightAware ADS-B
03:43PM 39.7501 -104.6890 360° North 157 181 7,300 -600 Level FlightAware ADS-B
03:43PM 39.7615 -104.6880 North 150 173 7,100 -780 Descending FlightAware ADS-B
03:43PM 39.7722 -104.6880 360° North 153 176 6,900 -840 Descending FlightAware ADS-B
03:44PM 39.7833 -104.6880 360° North 151 174 6,700 -780 Descending FlightAware ADS-B
03:44PM 39.7939 -104.6880 360° North 144 166 6,500 -900 Descending FlightAware ADS-B
03:44PM 39.7967 -104.6880 360° North 144 166 6,400 -720 Descending FlightAware ADS-B
03:44PM 39.8054 -104.6880 360° North 145 167 6,300 -600 Descending FlightAware ADS-B
03:44PM 39.8099 -104.6880 360° North 146 168 6,200 -900 Descending FlightAware ADS-B
03:45PM 39.8198 -104.6880 360° North 151 174 6,000 -720 Descending FlightAware ADS-B
03:45PM 39.8276 -104.6880 360° North 154 177 5,900 -600 Descending FlightAware ADS-B
03:45PM 39.8344 -104.6880 360° North 154 177 5,800 -900 Descending FlightAware ADS-B
03:45PM 39.8426 -104.6880 360° North 154 177 5,600 -780 Descending FlightAware ADS-B
03:45PM 39.8461 -104.6880 360° North 156 180 5,600 -600 Level FlightAware ADS-B
03:45PM 39.8574 -104.6870 North 159 183 5,400 -780 Descending FlightAware ADS-B
03:46PM 39.8739 -104.6870 360° North 145 167 -14,100 Descending FlightAware ADS-B
03:46PM 39.8816 -104.6870 360° North 76 87  Level FlightAware ADS-B